Oconee, Georgia
Current Conditions -  °F | °C
As of 1:55 AM on Monday 24 Nov 2014 (Local Time) from KOKZ Reporting Station
Scattered Clouds Scattered Clouds  
Wind Chill: 64°   Ceiling: Unl
Heat Index: 64°   Visibility: 10mi
Dew Point: 61°   Wind: 8mph
Humidity: 93%   Direction: 230°SW
Pressure: 29.82"   Gusts: NA
Location:  32.86°N, 82.95°W
Report Text: KOKZ 240655Z AUTO 23007KT 10SM SCT020 18/16 A2982 RMK AO2 T01750163
Loading
Personal Weather Stations






























Interactive Weather Map New forecast layout! Learn more

10-Day Weather Forecast

Advertisements
Track Severe Weather on mobile